createdAt,value
2019-05-07T00:02:02.703Z,65.05
2019-05-07T00:04:34.560Z,65.21
2019-05-07T00:07:04.963Z,65.28
2019-05-07T00:09:37.009Z,65.49
2019-05-07T00:12:07.270Z,65.48
2019-05-07T00:14:38.103Z,65.57
2019-05-07T00:17:08.663Z,65.62
2019-05-07T00:19:39.015Z,65.55
2019-05-07T00:22:09.594Z,65.60
2019-05-07T00:24:39.918Z,65.65
2019-05-07T00:27:13.596Z,65.82
2019-05-07T00:29:43.931Z,65.84
2019-05-07T00:32:14.211Z,65.84
2019-05-07T00:34:48.926Z,65.82
2019-05-07T00:37:40.311Z,66.10
2019-05-07T00:40:32.104Z,65.86
2019-05-07T00:43:08.814Z,65.75
2019-05-07T00:46:04.185Z,65.81
2019-05-07T00:48:34.475Z,65.80
2019-05-07T00:51:22.692Z,65.95
2019-05-07T00:53:53.095Z,66.04
2019-05-07T00:56:25.283Z,66.30
2019-05-07T00:58:55.626Z,66.29
2019-05-07T01:01:25.898Z,66.34
2019-05-07T01:03:56.221Z,66.47
2019-05-07T01:06:27.604Z,66.64
2019-05-07T01:08:58.100Z,66.74
2019-05-07T01:11:28.373Z,66.94
2019-05-07T01:13:59.238Z,67.20
2019-05-07T01:16:29.624Z,67.19
2019-05-07T01:19:01.880Z,67.41
2019-05-07T01:21:32.625Z,67.39
2019-05-07T01:24:03.502Z,67.54
2019-05-07T01:26:34.219Z,67.56
2019-05-07T01:29:04.884Z,67.66
2019-05-07T01:31:39.122Z,68.01
2019-05-07T01:34:35.149Z,67.95
2019-05-07T01:37:05.733Z,68.15
2019-05-07T01:39:36.001Z,68.36
2019-05-07T01:42:08.121Z,68.52
2019-05-07T01:44:38.540Z,68.99
2019-05-07T01:47:13.065Z,69.18
2019-05-07T01:49:43.677Z,69.48
2019-05-07T01:52:15.155Z,69.48
2019-05-07T01:54:47.439Z,69.87
2019-05-07T01:57:18.416Z,69.87
2019-05-07T01:59:49.048Z,70.33
2019-05-07T02:02:25.340Z,70.96
2019-05-07T02:05:12.874Z,71.61
2019-05-07T02:07:48.903Z,71.95
2019-05-07T02:10:38.175Z,72.36
2019-05-07T02:13:08.462Z,72.77
2019-05-07T02:15:39.107Z,73.26
2019-05-07T02:18:09.410Z,74.09
2019-05-07T02:20:42.467Z,74.40
2019-05-07T02:23:12.909Z,74.79
2019-05-07T02:25:43.658Z,74.98
2019-05-07T02:28:14.158Z,75.29
2019-05-07T02:30:44.908Z,75.72
2019-05-07T02:33:15.374Z,76.05
2019-05-07T02:35:47.774Z,76.49
2019-05-07T02:38:24.043Z,76.83
2019-05-07T02:41:03.135Z,77.35
2019-05-07T02:43:34.027Z,77.35
2019-05-07T02:46:30.507Z,77.97
2019-05-07T02:48:59.106Z,78.44
2019-05-07T02:51:35.067Z,78.89
2019-05-07T02:54:13.399Z,79.26
2019-05-07T02:56:43.845Z,79.73
2019-05-07T02:59:15.508Z,80.08
2019-05-07T03:01:46.084Z,80.34
2019-05-07T03:04:18.057Z,80.80
2019-05-07T03:06:48.352Z,81.14
2019-05-07T03:09:22.799Z,81.34
2019-05-07T03:11:53.260Z,81.50
2019-05-07T03:14:24.715Z,81.55
2019-05-07T03:16:55.196Z,81.46
2019-05-07T03:19:25.776Z,81.24
2019-05-07T03:21:56.371Z,80.90
2019-05-07T03:24:45.003Z,80.59
2019-05-07T03:27:15.571Z,80.31
2019-05-07T03:29:53.976Z,79.96
2019-05-07T03:32:37.843Z,79.71
2019-05-07T03:35:16.269Z,78.96
2019-05-07T03:37:47.783Z,78.96
2019-05-07T03:40:18.100Z,78.83
2019-05-07T03:42:48.730Z,78.54
2019-05-07T03:45:43.304Z,78.26
2019-05-07T03:48:15.493Z,78.04
2019-05-07T03:50:45.949Z,77.93
2019-05-07T03:53:16.521Z,77.86
2019-05-07T03:55:46.905Z,77.86
2019-05-07T03:58:17.427Z,77.97
2019-05-07T04:00:47.683Z,77.95
2019-05-07T04:03:19.836Z,77.97
2019-05-07T04:05:53.128Z,77.77
2019-05-07T04:08:23.853Z,77.63
2019-05-07T04:10:54.426Z,77.45
2019-05-07T04:13:24.995Z,77.35
2019-05-07T04:15:55.348Z,77.28
2019-05-07T04:18:25.978Z,77.02
2019-05-07T04:20:56.557Z,76.87
2019-05-07T04:23:27.877Z,76.73
2019-05-07T04:26:17.188Z,76.80
2019-05-07T04:28:55.604Z,76.56
2019-05-07T04:31:27.896Z,76.39
2019-05-07T04:34:03.658Z,76.21
2019-05-07T04:36:43.717Z,76.10
2019-05-07T04:39:13.413Z,76.06
2019-05-07T04:41:44.715Z,76.07
2019-05-07T04:44:14.987Z,76.16
2019-05-07T04:46:48.107Z,76.09
2019-05-07T04:49:18.795Z,76.00
2019-05-07T04:52:04.051Z,75.77
2019-05-07T04:54:34.027Z,75.83
2019-05-07T04:57:06.263Z,75.67
2019-05-07T04:59:36.544Z,75.54
2019-05-07T05:02:13.771Z,75.40
2019-05-07T05:04:44.154Z,75.30
2019-05-07T05:07:14.730Z,75.28
2019-05-07T05:09:45.022Z,75.04
2019-05-07T05:12:15.657Z,74.65
2019-05-07T05:14:45.969Z,74.14
2019-05-07T05:17:16.316Z,73.70
2019-05-07T05:19:46.612Z,73.48
2019-05-07T05:22:49.108Z,73.25
2019-05-07T05:25:26.262Z,72.59
2019-05-07T05:27:56.620Z,72.17
2019-05-07T05:30:42.464Z,71.89
2019-05-07T05:33:12.753Z,71.44
2019-05-07T05:35:43.783Z,71.27
2019-05-07T05:38:14.284Z,71.18
2019-05-07T05:40:44.929Z,70.79
2019-05-07T05:43:31.971Z,69.63
2019-05-07T05:46:03.472Z,68.84
2019-05-07T05:48:34.528Z,68.22
2019-05-07T05:51:12.387Z,67.62
2019-05-07T05:53:53.178Z,66.42
2019-05-07T05:56:42.778Z,65.75
2019-05-07T05:59:44.991Z,65.16
2019-05-07T06:02:12.125Z,64.55
2019-05-07T06:04:53.916Z,64.07
2019-05-07T06:07:37.638Z,63.60
2019-05-07T06:10:22.311Z,63.10
2019-05-07T06:12:57.366Z,62.65
2019-05-07T06:15:52.763Z,61.63
2019-05-07T06:18:41.872Z,62.09
2019-05-07T06:21:32.587Z,61.34
2019-05-07T06:24:05.742Z,61.33
2019-05-07T06:26:36.351Z,60.47
2019-05-07T06:29:06.966Z,59.60
2019-05-07T06:31:37.638Z,58.81
2019-05-07T06:34:12.551Z,58.50
2019-05-07T06:36:43.412Z,56.77
2019-05-07T06:39:19.365Z,55.50
2019-05-07T06:42:07.469Z,54.71
2019-05-07T06:44:38.138Z,54.66
2019-05-07T06:47:08.486Z,54.51
2019-05-07T06:49:39.483Z,55.00
2019-05-07T06:52:12.116Z,54.99
2019-05-07T06:54:42.873Z,54.56
2019-05-07T06:57:13.179Z,54.34
2019-05-07T06:59:49.856Z,53.89
2019-05-07T07:02:28.848Z,53.83
2019-05-07T07:05:18.093Z,52.56
2019-05-07T07:08:02.171Z,52.64
2019-05-07T07:10:54.157Z,52.29
2019-05-07T07:13:25.290Z,51.79
2019-05-07T07:15:57.217Z,51.96
2019-05-07T07:18:27.702Z,51.03
2019-05-07T07:21:02.232Z,50.71
2019-05-07T07:23:32.820Z,49.69
2019-05-07T07:26:03.450Z,48.54
2019-05-07T07:28:34.285Z,48.08
2019-05-07T07:31:26.764Z,46.70
2019-05-07T07:33:58.174Z,44.72
2019-05-07T07:36:32.026Z,43.26
2019-05-07T07:39:03.882Z,40.12
2019-05-07T07:41:38.170Z,37.24
2019-05-07T07:44:09.707Z,35.53
2019-05-07T07:46:42.493Z,32.84
2019-05-07T07:49:15.029Z,30.75
2019-05-07T07:51:46.040Z,28.98
2019-05-07T07:54:17.544Z,26.88
2019-05-07T07:57:12.472Z,25.89
2019-05-07T07:59:56.825Z,26.53
2019-05-07T08:02:34.013Z,27.43
2019-05-07T08:05:05.349Z,27.12
2019-05-07T08:07:37.100Z,25.60
2019-05-07T08:10:08.317Z,24.91
2019-05-07T08:12:38.955Z,27.89
2019-05-07T08:15:20.863Z,30.78
2019-05-07T08:17:52.658Z,34.03
2019-05-07T08:20:26.653Z,37.71
2019-05-07T08:22:57.118Z,40.98
2019-05-07T08:25:45.066Z,40.98
2019-05-07T08:28:17.469Z,42.82
2019-05-07T08:31:02.944Z,43.04
2019-05-07T08:33:33.553Z,41.45
2019-05-07T08:36:09.195Z,41.04
2019-05-07T08:38:53.237Z,41.70
2019-05-07T08:41:25.709Z,42.15
2019-05-07T08:44:11.747Z,42.29
2019-05-07T08:46:56.304Z,42.77
2019-05-07T08:49:37.051Z,42.62
2019-05-07T08:52:04.090Z,42.64
2019-05-07T08:54:34.942Z,42.82
2019-05-07T08:57:05.366Z,44.08
2019-05-07T08:59:36.336Z,44.88
2019-05-07T09:02:06.596Z,44.88
2019-05-07T09:04:37.802Z,45.11
2019-05-07T09:07:08.225Z,44.70
2019-05-07T09:09:38.517Z,42.54
2019-05-07T09:12:09.417Z,42.38
2019-05-07T09:14:42.556Z,41.81
2019-05-07T09:17:13.117Z,41.65
2019-05-07T09:19:51.076Z,42.18
2019-05-07T09:22:18.071Z,42.46
2019-05-07T09:24:49.146Z,41.83
2019-05-07T09:27:33.097Z,42.10
2019-05-07T09:30:17.027Z,41.67
2019-05-07T09:32:53.417Z,41.37
2019-05-07T09:35:46.187Z,40.64
2019-05-07T09:38:16.462Z,39.65
2019-05-07T09:40:46.786Z,37.40
2019-05-07T09:43:17.579Z,37.18
2019-05-07T09:45:49.452Z,37.10
2019-05-07T09:48:22.000Z,38.62
2019-05-07T09:50:54.006Z,40.88
2019-05-07T09:53:27.518Z,41.34
2019-05-07T09:56:01.993Z,42.20
2019-05-07T09:58:38.797Z,48.79
2019-05-07T10:01:04.264Z,45.42
2019-05-07T10:03:34.818Z,48.76
2019-05-07T10:06:05.267Z,50.47
2019-05-07T10:08:36.027Z,49.14
2019-05-07T10:11:08.184Z,48.47
2019-05-07T10:14:03.618Z,48.29
2019-05-07T10:16:56.292Z,50.36
2019-05-07T10:19:26.874Z,50.53
2019-05-07T10:21:57.361Z,49.30
2019-05-07T10:24:28.004Z,48.12
2019-05-07T10:27:02.255Z,48.67
2019-05-07T10:29:34.077Z,51.44
2019-05-07T10:32:04.624Z,51.79
2019-05-07T10:34:34.957Z,53.32
2019-05-07T10:37:07.349Z,53.73
2019-05-07T10:39:39.205Z,53.73
2019-05-07T10:42:09.778Z,53.84
2019-05-07T10:44:46.456Z,54.47
2019-05-07T10:47:39.094Z,53.73
2019-05-07T10:50:33.109Z,53.83
2019-05-07T10:52:54.277Z,53.31
2019-05-07T10:55:24.836Z,51.90
2019-05-07T10:57:55.132Z,51.90
2019-05-07T11:00:26.484Z,54.28
2019-05-07T11:02:58.475Z,57.31
2019-05-07T11:05:28.858Z,58.51
2019-05-07T11:07:59.167Z,59.67
2019-05-07T11:10:29.468Z,59.63
2019-05-07T11:13:02.113Z,61.21
2019-05-07T11:15:35.396Z,62.28
2019-05-07T11:18:14.042Z,64.11
2019-05-07T11:20:49.307Z,67.45
2019-05-07T11:23:16.755Z,67.81
2019-05-07T11:25:48.573Z,70.50
2019-05-07T11:28:18.878Z,67.04
2019-05-07T11:30:49.416Z,65.32
2019-05-07T11:33:21.863Z,66.62
2019-05-07T11:35:52.829Z,64.29
2019-05-07T11:38:24.943Z,63.81
2019-05-07T11:40:56.716Z,62.82
2019-05-07T11:43:42.251Z,62.99
2019-05-07T11:46:16.337Z,62.44
2019-05-07T11:48:55.188Z,61.51
2019-05-07T11:51:47.572Z,59.42
2019-05-07T11:54:17.862Z,59.01
2019-05-07T11:56:48.165Z,57.47
2019-05-07T11:59:18.900Z,58.29
2019-05-07T12:01:52.855Z,53.68
2019-05-07T12:04:23.210Z,49.10
2019-05-07T12:06:53.541Z,47.98
2019-05-07T12:09:24.112Z,49.37
2019-05-07T12:11:54.673Z,47.25
2019-05-07T12:14:31.383Z,47.34
2019-05-07T12:16:57.720Z,46.36
2019-05-07T12:19:27.985Z,42.94
2019-05-07T12:21:59.692Z,42.03
2019-05-07T12:24:32.699Z,41.53
2019-05-07T12:27:02.763Z,39.61
2019-05-07T12:29:33.153Z,39.97
2019-05-07T12:32:23.527Z,39.37
2019-05-07T12:35:02.273Z,38.90
2019-05-07T12:37:34.251Z,35.46
2019-05-07T12:40:05.713Z,34.56
2019-05-07T12:42:36.415Z,33.31
2019-05-07T12:45:07.247Z,33.40
2019-05-07T12:47:37.731Z,32.97
2019-05-07T12:50:08.523Z,31.56
2019-05-07T12:53:02.307Z,33.26
2019-05-07T12:55:39.800Z,33.99
2019-05-07T12:58:12.483Z,33.89
2019-05-07T13:01:01.303Z,34.02
2019-05-07T13:03:56.957Z,32.85
2019-05-07T13:06:27.613Z,31.45
2019-05-07T13:08:58.212Z,32.07
2019-05-07T13:11:28.473Z,32.23
2019-05-07T13:14:02.003Z,31.45
2019-05-07T13:16:32.488Z,31.73
2019-05-07T13:19:03.035Z,31.83
2019-05-07T13:21:45.853Z,31.41
2019-05-07T13:24:06.162Z,32.29
2019-05-07T13:26:36.903Z,32.54
2019-05-07T13:29:07.618Z,32.67
2019-05-07T13:31:38.259Z,33.12
2019-05-07T13:34:08.931Z,32.83
2019-05-07T13:36:42.649Z,33.05
2019-05-07T13:39:44.329Z,33.03
2019-05-07T13:42:32.505Z,32.68
2019-05-07T13:45:22.444Z,31.82
2019-05-07T13:48:02.831Z,30.91
2019-05-07T13:50:33.517Z,30.81
2019-05-07T13:53:04.195Z,31.19
2019-05-07T13:55:34.534Z,31.09
2019-05-07T13:58:05.138Z,31.26
2019-05-07T14:00:45.001Z,32.92
2019-05-07T14:03:15.297Z,31.78
2019-05-07T14:05:46.358Z,32.17
2019-05-07T14:08:17.550Z,31.98
2019-05-07T14:10:48.196Z,31.32
2019-05-07T14:13:22.651Z,31.49
2019-05-07T14:16:11.868Z,30.12
2019-05-07T14:18:42.234Z,30.14
2019-05-07T14:21:13.137Z,30.06
2019-05-07T14:23:43.845Z,30.16
2019-05-07T14:26:16.971Z,31.34
2019-05-07T14:28:47.358Z,32.00
2019-05-07T14:31:19.551Z,32.50
2019-05-07T14:34:04.609Z,32.93
2019-05-07T14:36:49.344Z,33.55
2019-05-07T14:39:22.046Z,34.47
2019-05-07T14:41:54.471Z,35.94
2019-05-07T14:44:36.029Z,36.96
2019-05-07T14:47:06.799Z,37.72
2019-05-07T14:49:37.919Z,37.95
2019-05-07T14:52:12.311Z,37.53
2019-05-07T14:54:43.178Z,37.61
2019-05-07T14:57:13.881Z,37.54
2019-05-07T14:59:44.975Z,38.24
2019-05-07T15:02:15.344Z,37.97
2019-05-07T15:04:47.078Z,37.70
2019-05-07T15:07:17.817Z,37.73
2019-05-07T15:09:51.759Z,37.43
2019-05-07T15:12:23.348Z,37.06
2019-05-07T15:14:53.690Z,37.16
2019-05-07T15:17:33.964Z,36.36
2019-05-07T15:20:04.595Z,36.52
2019-05-07T15:22:52.681Z,35.68
2019-05-07T15:25:24.443Z,35.78
2019-05-07T15:27:55.020Z,36.34
2019-05-07T15:30:26.983Z,36.81
2019-05-07T15:32:57.839Z,36.94
2019-05-07T15:35:31.861Z,36.80
2019-05-07T15:38:02.424Z,36.54
2019-05-07T15:40:33.121Z,36.51
2019-05-07T15:43:03.689Z,36.53
2019-05-07T15:45:34.267Z,36.68
2019-05-07T15:48:06.176Z,35.69
2019-05-07T15:50:37.144Z,35.17
2019-05-07T15:53:32.446Z,34.36
2019-05-07T15:56:03.762Z,34.63
2019-05-07T15:58:35.403Z,35.02
2019-05-07T16:01:08.323Z,34.78
2019-05-07T16:03:42.906Z,34.98
2019-05-07T16:06:13.692Z,35.13
2019-05-07T16:08:50.815Z,35.13
2019-05-07T16:11:25.526Z,35.68
2019-05-07T16:14:27.221Z,35.60
2019-05-07T16:17:10.360Z,35.62
2019-05-07T16:19:42.576Z,35.90
2019-05-07T16:22:17.311Z,35.57
2019-05-07T16:24:47.738Z,35.63
2019-05-07T16:27:18.320Z,35.79
2019-05-07T16:29:57.533Z,35.76
2019-05-07T16:32:27.927Z,35.89
2019-05-07T16:34:58.671Z,36.39
2019-05-07T16:37:29.277Z,36.84
2019-05-07T16:40:01.602Z,36.83
2019-05-07T16:42:33.536Z,36.56
2019-05-07T16:45:04.286Z,36.47
2019-05-07T16:47:34.856Z,36.17
2019-05-07T16:50:06.277Z,36.08
2019-05-07T16:52:37.102Z,36.36
2019-05-07T16:55:08.040Z,36.51
2019-05-07T16:57:47.104Z,36.45
2019-05-07T17:00:26.550Z,36.90
2019-05-07T17:02:58.583Z,36.63
2019-05-07T17:05:28.990Z,36.86
2019-05-07T17:08:18.569Z,37.17
2019-05-07T17:10:49.206Z,37.62
2019-05-07T17:13:19.840Z,38.23
2019-05-07T17:16:03.357Z,38.44
2019-05-07T17:18:35.504Z,39.05
2019-05-07T17:21:06.031Z,39.53
2019-05-07T17:23:44.040Z,40.06
2019-05-07T17:26:12.269Z,40.28
2019-05-07T17:28:42.909Z,40.54
2019-05-07T17:31:13.540Z,40.54
2019-05-07T17:33:45.235Z,40.46
2019-05-07T17:36:18.598Z,40.32
2019-05-07T17:38:51.983Z,40.52
2019-05-07T17:41:27.028Z,40.70
2019-05-07T17:43:55.421Z,40.98
2019-05-07T17:46:26.312Z,41.29
2019-05-07T17:48:56.792Z,41.54
2019-05-07T17:51:46.333Z,41.71
2019-05-07T17:54:16.698Z,41.94
2019-05-07T17:56:48.464Z,42.23
2019-05-07T17:59:20.142Z,42.66
2019-05-07T18:02:15.323Z,43.00
2019-05-07T18:04:51.318Z,43.23
2019-05-07T18:07:19.328Z,43.50
2019-05-07T18:09:49.734Z,43.69
2019-05-07T18:12:22.677Z,43.79
2019-05-07T18:14:58.043Z,43.89
2019-05-07T18:17:42.071Z,43.98
2019-05-07T18:20:12.921Z,44.21
2019-05-07T18:22:45.028Z,44.49
2019-05-07T18:25:17.417Z,44.89
2019-05-07T18:27:52.555Z,45.03
2019-05-07T18:30:22.529Z,45.30
2019-05-07T18:32:58.974Z,45.49
2019-05-07T18:35:29.771Z,45.70
2019-05-07T18:38:02.489Z,46.34
2019-05-07T18:40:32.561Z,46.75
2019-05-07T18:43:03.732Z,46.98
2019-05-07T18:45:34.015Z,47.07
2019-05-07T18:48:06.962Z,46.87
2019-05-07T18:50:37.388Z,46.55
2019-05-07T18:53:07.973Z,46.55
2019-05-07T18:55:38.308Z,47.04
2019-05-07T18:58:13.516Z,47.29
2019-05-07T19:00:51.912Z,47.39
2019-05-07T19:03:25.232Z,48.11
2019-05-07T19:05:54.814Z,48.56
2019-05-07T19:08:26.522Z,49.10
2019-05-07T19:10:56.980Z,49.51
2019-05-07T19:13:27.550Z,50.04
2019-05-07T19:15:57.943Z,50.58
2019-05-07T19:18:32.032Z,50.98
2019-05-07T19:21:01.856Z,51.54
2019-05-07T19:23:33.068Z,52.00
2019-05-07T19:26:03.690Z,52.53
2019-05-07T19:28:34.049Z,53.10
2019-05-07T19:31:05.573Z,53.72
2019-05-07T19:33:36.230Z,54.28
2019-05-07T19:36:07.868Z,54.79
2019-05-07T19:38:38.296Z,55.48
2019-05-07T19:41:08.890Z,56.03
2019-05-07T19:43:39.370Z,56.54
2019-05-07T19:46:12.235Z,57.20
2019-05-07T19:48:44.074Z,57.56
2019-05-07T19:51:14.895Z,58.16
2019-05-07T19:53:45.449Z,58.76
2019-05-07T19:56:18.249Z,59.38
2019-05-07T19:58:48.899Z,59.54
2019-05-07T20:01:23.753Z,59.66
2019-05-07T20:03:54.047Z,59.75
2019-05-07T20:06:24.610Z,59.83
2019-05-07T20:09:09.025Z,60.14
2019-05-07T20:11:44.756Z,60.18
2019-05-07T20:14:15.187Z,60.18
2019-05-07T20:16:45.532Z,60.20
2019-05-07T20:19:15.992Z,59.47
2019-05-07T20:21:52.365Z,59.69
2019-05-07T20:24:22.914Z,59.59
2019-05-07T20:26:53.609Z,59.50
2019-05-07T20:29:24.010Z,59.54
2019-05-07T20:31:54.658Z,59.78
2019-05-07T20:34:24.977Z,59.67
2019-05-07T20:36:55.303Z,59.33
2019-05-07T20:39:25.728Z,59.71
2019-05-07T20:41:56.170Z,59.99
2019-05-07T20:44:26.679Z,60.39
2019-05-07T20:46:57.644Z,60.63
2019-05-07T20:49:28.084Z,60.90
2019-05-07T20:51:58.476Z,61.07
2019-05-07T20:54:50.319Z,61.41
2019-05-07T20:57:26.472Z,61.50
2019-05-07T20:59:58.024Z,61.71
2019-05-07T21:02:42.534Z,61.88
2019-05-07T21:05:02.990Z,61.78
2019-05-07T21:07:34.553Z,61.85
2019-05-07T21:10:05.651Z,61.85
2019-05-07T21:12:36.023Z,61.73
2019-05-07T21:15:06.667Z,61.80
2019-05-07T21:17:37.066Z,61.87
2019-05-07T21:20:07.740Z,61.90
2019-05-07T21:22:38.309Z,62.07
2019-05-07T21:25:08.794Z,62.19
2019-05-07T21:27:39.210Z,62.23
2019-05-07T21:30:09.775Z,62.40
2019-05-07T21:32:42.115Z,62.59
2019-05-07T21:35:12.935Z,62.75
2019-05-07T21:37:43.596Z,62.89
2019-05-07T21:40:16.015Z,62.92
2019-05-07T21:42:49.330Z,62.72
2019-05-07T21:45:23.650Z,62.62
2019-05-07T21:47:54.385Z,62.75
2019-05-07T21:50:23.971Z,62.91
2019-05-07T21:52:59.553Z,63.08
2019-05-07T21:55:35.901Z,63.23
2019-05-07T21:58:43.503Z,63.40
2019-05-07T22:01:22.177Z,63.64
2019-05-07T22:03:54.365Z,63.85
2019-05-07T22:06:24.695Z,63.85
2019-05-07T22:08:56.620Z,63.81
2019-05-07T22:11:26.949Z,63.12
2019-05-07T22:13:57.254Z,62.41
2019-05-07T22:16:27.761Z,61.95
2019-05-07T22:18:58.108Z,61.63
2019-05-07T22:21:28.673Z,61.20
2019-05-07T22:23:58.954Z,60.72
2019-05-07T22:26:32.008Z,60.65
2019-05-07T22:29:03.120Z,60.67
2019-05-07T22:31:58.551Z,60.79
2019-05-07T22:34:51.879Z,60.68
2019-05-07T22:37:23.957Z,60.71
2019-05-07T22:40:05.103Z,60.70
2019-05-07T22:42:38.734Z,60.82
2019-05-07T22:45:12.097Z,60.82
2019-05-07T22:47:43.060Z,60.29
2019-05-07T22:50:13.458Z,59.76
2019-05-07T22:52:45.068Z,59.57
2019-05-07T22:55:15.624Z,59.54
2019-05-07T22:58:15.277Z,59.53
2019-05-07T23:00:54.884Z,59.41
2019-05-07T23:03:25.259Z,59.35
2019-05-07T23:05:57.486Z,59.23
2019-05-07T23:08:29.854Z,58.81
2019-05-07T23:11:02.822Z,58.63
2019-05-07T23:13:33.120Z,58.48
2019-05-07T23:16:06.983Z,58.39
2019-05-07T23:18:38.239Z,58.15
2019-05-07T23:21:09.097Z,58.00
2019-05-07T23:23:42.003Z,57.83
2019-05-07T23:26:14.887Z,57.61
2019-05-07T23:28:45.216Z,57.55
2019-05-07T23:31:17.303Z,57.36
2019-05-07T23:33:52.382Z,57.27
2019-05-07T23:36:24.681Z,57.13
2019-05-07T23:38:55.046Z,56.81
2019-05-07T23:41:45.160Z,56.81
2019-05-07T23:44:16.883Z,56.82
2019-05-07T23:46:47.398Z,56.68
2019-05-07T23:49:17.785Z,56.55
2019-05-07T23:51:48.372Z,56.42
2019-05-07T23:54:18.857Z,56.61
2019-05-07T23:57:04.460Z,56.56
2019-05-07T23:59:22.157Z,56.58
